Time;durP1;ratioP1;P1;durP2;ratioP2;P2;SDS_P1;SDS_P2;PMS_P1;PMS_P2;Temp;Humidity;BMP_temperature;BMP_pressure;BME280_temperature;BME280_humidity;BME280_pressure;Samples;Min_cycle;Max_cycle;Signal;HPM_P1;HPM_P2
2021/04/27 00:00:41;;;;;;;;;24.50;23.25;;;;;;;;3559013;39;113517;-73
2021/04/27 00:03:07;;;;;;;;;22.75;20.25;;;;;;;;3562714;39;113730;-73
2021/04/27 00:05:33;;;;;;;;;26.00;25.50;;;;;;;;3558766;39;113233;-72
2021/04/27 00:08:01;;;;;;;;;33.00;24.25;;;;;;;;3558214;39;114283;-72
2021/04/27 00:10:28;;;;;;;;;26.75;25.75;;;;;;;;3559905;39;112506;-71
2021/04/27 00:12:54;;;;;;;;;29.25;26.75;;;;;;;;3559322;39;113281;-72
2021/04/27 00:15:22;;;;;;;;;22.00;21.25;;;;;;;;3559227;39;113877;-72
2021/04/27 00:17:49;;;;;;;;;32.25;28.25;;;;;;;;3558166;39;112050;-72
2021/04/27 00:20:16;;;;;;;;;24.50;24.00;;;;;;;;3559906;39;113200;-72
2021/04/27 00:22:42;;;;;;;;;22.25;22.00;;;;;;;;3558235;39;113929;-71
2021/04/27 00:25:09;;;;;;;;;25.50;20.50;;;;;;;;3563175;39;112272;-72
2021/04/27 00:27:36;;;;;;;;;25.50;22.75;;;;;;;;3558356;39;113817;-72
2021/04/27 00:30:03;;;;;;;;;29.25;25.75;;;;;;;;3560314;39;112025;-72
2021/04/27 00:32:29;;;;;;;;;28.75;25.50;;;;;;;;3558714;39;113180;-72
2021/04/27 00:34:55;;;;;;;;;24.00;23.00;;;;;;;;3559155;39;114122;-72
2021/04/27 00:37:21;;;;;;;;;29.75;27.25;;;;;;;;3559510;39;112022;-72
2021/04/27 00:39:47;;;;;;;;;24.25;22.00;;;;;;;;3559172;39;113307;-72
2021/04/27 00:42:13;;;;;;;;;27.25;23.25;;;;;;;;3558385;39;113789;-72
2021/04/27 00:44:40;;;;;;;;;22.75;21.00;;;;;;;;3560205;39;111684;-72
2021/04/27 00:47:06;;;;;;;;;27.25;21.75;;;;;;;;3560820;39;113886;-72
2021/04/27 00:49:32;;;;;;;;;21.25;18.50;;;;;;;;3560304;39;113326;-71
2021/04/27 00:51:58;;;;;;;;;24.00;22.75;;;;;;;;3559042;39;113417;-72
2021/04/27 00:54:24;;;;;;;;;20.25;18.25;;;;;;;;3559537;39;114463;-73
2021/04/27 00:56:50;;;;;;;;;20.50;18.75;;;;;;;;3559476;39;111775;-72
2021/04/27 00:59:16;;;;;;;;;21.00;19.75;;;;;;;;3559067;39;113399;-73
2021/04/27 01:01:44;;;;;;;;;24.50;22.75;;;;;;;;3557977;39;113879;-73
2021/04/27 01:04:11;;;;;;;;;24.25;24.25;;;;;;;;3560174;39;111891;-72
2021/04/27 01:06:37;;;;;;;;;30.25;25.50;;;;;;;;3558933;39;113923;-72
2021/04/27 01:09:06;;;;;;;;;22.75;22.75;;;;;;;;3559211;39;114018;-72
2021/04/27 01:11:36;;;;;;;;;28.25;23.75;;;;;;;;3560879;39;113275;-72
2021/04/27 01:14:06;;;;;;;;;25.25;22.50;;;;;;;;3558561;39;113919;-72
2021/04/27 01:16:33;;;;;;;;;25.75;24.00;;;;;;;;3555754;39;112320;-71
2021/04/27 01:19:00;;;;;;;;;23.25;23.25;;;;;;;;3560348;39;113565;-72
2021/04/27 01:21:28;;;;;;;;;25.00;21.50;;;;;;;;3559032;39;114282;-72
2021/04/27 01:24:01;;;;;;;;;25.75;22.50;;;;;;;;3559829;39;111721;-72
2021/04/27 01:26:36;;;;;;;;;28.75;23.75;;;;;;;;3559516;39;113374;-72
2021/04/27 01:29:04;;;;;;;;;25.75;20.50;;;;;;;;3562637;39;113898;-73
2021/04/27 01:31:30;;;;;;;;;24.75;23.25;;;;;;;;3559268;39;113841;-72
2021/04/27 01:33:57;;;;;;;;;21.50;18.00;;;;;;;;3559569;39;113877;-72
2021/04/27 01:36:23;;;;;;;;;25.75;24.50;;;;;;;;3559257;39;111856;-72
2021/04/27 01:38:49;;;;;;;;;19.75;18.00;;;;;;;;3559208;39;113833;-72
2021/04/27 01:41:15;;;;;;;;;26.25;22.50;;;;;;;;3559797;39;115240;-72
2021/04/27 01:43:42;;;;;;;;;24.50;24.50;;;;;;;;3558843;39;112643;-73
2021/04/27 01:46:08;;;;;;;;;23.50;21.25;;;;;;;;3560682;39;113667;-73
2021/04/27 01:48:36;;;;;;;;;25.25;24.00;;;;;;;;3556012;39;114354;-71
2021/04/27 01:51:04;;;;;;;;;22.25;22.25;;;;;;;;3561727;39;112028;-72
2021/04/27 01:53:31;;;;;;;;;25.00;22.00;;;;;;;;3558155;39;112893;-71
2021/04/27 01:55:57;;;;;;;;;18.25;17.75;;;;;;;;3559220;39;112409;-72
2021/04/27 01:58:23;;;;;;;;;20.25;17.50;;;;;;;;3559970;39;113481;-72
2021/04/27 02:00:50;;;;;;;;;23.75;22.50;;;;;;;;3559316;39;113972;-72
2021/04/27 02:03:16;;;;;;;;;27.00;22.25;;;;;;;;3558802;39;112004;-72
2021/04/27 02:05:42;;;;;;;;;22.00;18.00;;;;;;;;3559981;39;113416;-71
2021/04/27 02:08:08;;;;;;;;;23.50;21.00;;;;;;;;3557803;39;113931;-71
2021/04/27 02:10:34;;;;;;;;;19.75;19.50;;;;;;;;3559901;39;111842;-72
2021/04/27 02:13:03;;;;;;;;;18.25;16.25;;;;;;;;3561838;39;113826;-72
2021/04/27 02:15:29;;;;;;;;;20.25;18.00;;;;;;;;3556466;39;114146;-72
2021/04/27 02:17:58;;;;;;;;;26.25;22.00;;;;;;;;3559242;39;113438;-72
2021/04/27 02:20:25;;;;;;;;;21.00;17.25;;;;;;;;3558326;39;114831;-71
2021/04/27 02:22:52;;;;;;;;;26.00;19.00;;;;;;;;3558931;39;111792;-72
2021/04/27 02:25:20;;;;;;;;;18.75;16.50;;;;;;;;3559316;39;114105;-72
2021/04/27 02:27:46;;;;;;;;;20.50;17.00;;;;;;;;3555997;39;112983;-71
2021/04/27 02:30:15;;;;;;;;;15.50;12.75;;;;;;;;3558331;39;111824;-73
2021/04/27 02:32:42;;;;;;;;;17.75;16.50;;;;;;;;3559480;39;113559;-72
2021/04/27 02:35:10;;;;;;;;;20.50;17.25;;;;;;;;3560391;39;114083;-73
2021/04/27 02:37:36;;;;;;;;;23.50;19.00;;;;;;;;3556006;39;113450;-72
2021/04/27 02:40:05;;;;;;;;;21.25;18.75;;;;;;;;3559301;39;113875;-72
2021/04/27 02:42:31;;;;;;;;;19.00;16.00;;;;;;;;3558078;39;112312;-73
2021/04/27 02:44:57;;;;;;;;;17.50;16.75;;;;;;;;3559109;39;113887;-72
2021/04/27 02:47:23;;;;;;;;;19.25;18.25;;;;;;;;3557153;39;113915;-72
2021/04/27 02:49:49;;;;;;;;;21.25;21.00;;;;;;;;3559069;39;111957;-72
2021/04/27 02:52:16;;;;;;;;;17.25;16.00;;;;;;;;3558340;39;114019;-71
2021/04/27 02:54:42;;;;;;;;;20.00;17.00;;;;;;;;3558950;39;114121;-73
2021/04/27 02:57:08;;;;;;;;;21.25;20.25;;;;;;;;3560507;39;113022;-72
2021/04/27 02:59:34;;;;;;;;;17.00;17.00;;;;;;;;3554246;39;114020;-72
2021/04/27 03:02:00;;;;;;;;;23.50;17.25;;;;;;;;3558255;39;111949;-72
2021/04/27 03:04:26;;;;;;;;;19.00;15.75;;;;;;;;3558360;39;113832;-72
2021/04/27 03:06:52;;;;;;;;;17.25;15.00;;;;;;;;3558206;39;113998;-72
2021/04/27 03:09:19;;;;;;;;;22.00;17.50;;;;;;;;3558707;39;112821;-72
2021/04/27 03:11:45;;;;;;;;;17.00;15.50;;;;;;;;3558211;39;114210;-72
2021/04/27 03:14:11;;;;;;;;;19.00;18.00;;;;;;;;3556407;39;114140;-72
2021/04/27 03:16:37;;;;;;;;;22.00;20.00;;;;;;;;3554148;39;111858;-73
2021/04/27 03:19:03;;;;;;;;;18.25;17.25;;;;;;;;3556988;39;113256;-73
2021/04/27 03:21:30;;;;;;;;;19.75;18.00;;;;;;;;3555778;39;112249;-72
2021/04/27 03:23:56;;;;;;;;;19.00;17.00;;;;;;;;3557301;39;113752;-74
2021/04/27 03:26:23;;;;;;;;;18.75;18.00;;;;;;;;3556678;39;113936;-71
2021/04/27 03:28:49;;;;;;;;;21.00;18.00;;;;;;;;3557340;39;111816;-72
2021/04/27 03:31:16;;;;;;;;;20.75;17.50;;;;;;;;3557784;39;113342;-72
2021/04/27 03:33:42;;;;;;;;;22.00;18.75;;;;;;;;3559727;39;114876;-71
2021/04/27 03:36:08;;;;;;;;;19.25;17.50;;;;;;;;3558843;39;111864;-71
2021/04/27 03:38:34;;;;;;;;;15.50;15.50;;;;;;;;3562990;39;113716;-72
2021/04/27 03:41:00;;;;;;;;;16.50;15.50;;;;;;;;3559135;39;112289;-72
2021/04/27 03:43:27;;;;;;;;;18.00;16.75;;;;;;;;3560110;39;113455;-75
2021/04/27 03:45:54;;;;;;;;;17.50;17.50;;;;;;;;3558986;39;113978;-72
2021/04/27 03:48:21;;;;;;;;;15.00;14.25;;;;;;;;3559653;39;111991;-75
2021/04/27 03:50:47;;;;;;;;;20.00;19.00;;;;;;;;3559672;39;113700;-73
2021/04/27 03:53:14;;;;;;;;;15.25;15.25;;;;;;;;3558818;39;114130;-74
2021/04/27 03:55:40;;;;;;;;;12.50;11.00;;;;;;;;3560348;39;112642;-74
2021/04/27 03:58:06;;;;;;;;;17.25;15.00;;;;;;;;3558918;39;113329;-73
2021/04/27 04:00:34;;;;;;;;;19.50;15.00;;;;;;;;3561698;39;115085;-74
2021/04/27 04:03:00;;;;;;;;;15.75;15.75;;;;;;;;3562810;39;113645;-74
2021/04/27 04:05:26;;;;;;;;;10.25;10.25;;;;;;;;3562499;39;113969;-73
2021/04/27 04:07:52;;;;;;;;;15.75;14.00;;;;;;;;3562691;39;111977;-74
2021/04/27 04:10:18;;;;;;;;;14.00;14.00;;;;;;;;3562941;39;113210;-74
2021/04/27 04:12:45;;;;;;;;;11.00;11.00;;;;;;;;3558399;39;112819;-75
2021/04/27 04:15:13;;;;;;;;;15.00;14.00;;;;;;;;3563517;39;112238;-73
2021/04/27 04:17:40;;;;;;;;;16.75;14.50;;;;;;;;3560049;39;113281;-73
2021/04/27 04:20:07;;;;;;;;;15.00;14.00;;;;;;;;3563284;39;114324;-71
2021/04/27 04:22:33;;;;;;;;;14.00;14.00;;;;;;;;3565792;39;112010;-72
2021/04/27 04:24:59;;;;;;;;;15.00;14.00;;;;;;;;3563178;39;114524;-71
2021/04/27 04:27:25;;;;;;;;;15.50;15.00;;;;;;;;3563063;39;111835;-72
2021/04/27 04:29:51;;;;;;;;;15.75;14.25;;;;;;;;3562868;39;113130;-72
2021/04/27 04:32:17;;;;;;;;;14.50;12.00;;;;;;;;3559206;39;115765;-72
2021/04/27 04:34:44;;;;;;;;;15.25;14.75;;;;;;;;3562505;39;111972;-71
2021/04/27 04:37:10;;;;;;;;;19.00;16.00;;;;;;;;3559609;39;112593;-73
2021/04/27 04:39:36;;;;;;;;;19.00;17.00;;;;;;;;3560176;39;112779;-72
2021/04/27 04:42:03;;;;;;;;;20.75;19.50;;;;;;;;3560327;39;111939;-72
2021/04/27 04:44:29;;;;;;;;;14.50;13.50;;;;;;;;3565157;39;113408;-72
2021/04/27 04:46:55;;;;;;;;;12.50;12.00;;;;;;;;3559139;39;112511;-72
2021/04/27 04:49:21;;;;;;;;;14.00;14.00;;;;;;;;3558840;39;113834;-73
2021/04/27 04:51:48;;;;;;;;;15.25;14.00;;;;;;;;3559046;39;113765;-73
2021/04/27 04:54:14;;;;;;;;;13.75;11.00;;;;;;;;3558873;39;112238;-72
2021/04/27 04:56:40;;;;;;;;;16.50;15.00;;;;;;;;3559777;39;113301;-71
2021/04/27 04:59:06;;;;;;;;;16.00;14.25;;;;;;;;3556042;39;114065;-73
2021/04/27 05:01:32;;;;;;;;;14.00;14.00;;;;;;;;3560323;39;112037;-72
2021/04/27 05:03:58;;;;;;;;;17.25;14.25;;;;;;;;3558622;39;115118;-72
2021/04/27 05:06:25;;;;;;;;;15.00;15.00;;;;;;;;3561117;39;113903;-73
2021/04/27 05:08:54;;;;;;;;;10.75;9.00;;;;;;;;3559257;39;113636;-72
2021/04/27 05:11:20;;;;;;;;;16.50;16.50;;;;;;;;3558898;39;113950;-71
2021/04/27 05:13:46;;;;;;;;;14.00;14.00;;;;;;;;3558922;39;111856;-72
2021/04/27 05:16:13;;;;;;;;;11.00;11.00;;;;;;;;3560149;39;113449;-73
2021/04/27 05:18:39;;;;;;;;;10.25;10.25;;;;;;;;3558017;39;113837;-73
2021/04/27 05:21:06;;;;;;;;;15.25;11.75;;;;;;;;3560270;39;112573;-73
2021/04/27 05:23:32;;;;;;;;;13.25;12.00;;;;;;;;3558591;39;113246;-74
2021/04/27 05:25:59;;;;;;;;;11.25;9.25;;;;;;;;3558167;39;113298;-72
2021/04/27 05:28:25;;;;;;;;;15.00;12.00;;;;;;;;3561184;39;112099;-73
2021/04/27 05:30:51;;;;;;;;;15.00;10.25;;;;;;;;3558781;39;114266;-72
2021/04/27 05:33:17;;;;;;;;;11.50;11.25;;;;;;;;3557983;39;112141;-72
2021/04/27 05:35:43;;;;;;;;;16.00;13.50;;;;;;;;3559925;39;113142;-71
2021/04/27 05:38:10;;;;;;;;;16.00;12.25;;;;;;;;3559579;39;114008;-74
2021/04/27 05:40:37;;;;;;;;;18.00;16.00;;;;;;;;3558193;39;111829;-72
2021/04/27 05:43:04;;;;;;;;;18.25;15.50;;;;;;;;3554114;39;114906;-74
2021/04/27 05:45:30;;;;;;;;;14.50;14.50;;;;;;;;3558694;39;114133;-76
2021/04/27 05:47:56;;;;;;;;;17.25;14.00;;;;;;;;3561452;39;112537;-76
2021/04/27 05:50:22;;;;;;;;;13.75;11.50;;;;;;;;3557141;39;114646;-76
2021/04/27 05:52:48;;;;;;;;;17.00;16.00;;;;;;;;3558199;39;112637;-70
2021/04/27 05:55:15;;;;;;;;;17.00;15.00;;;;;;;;3555747;39;112415;-69
2021/04/27 05:57:41;;;;;;;;;15.50;14.50;;;;;;;;3557816;39;114104;-67
2021/04/27 06:00:09;;;;;;;;;17.00;14.75;;;;;;;;3559875;39;111897;-69
2021/04/27 06:02:35;;;;;;;;;18.25;15.25;;;;;;;;3556107;39;113971;-69
2021/04/27 06:05:01;;;;;;;;;20.00;15.00;;;;;;;;3559498;39;113783;-69
2021/04/27 06:07:27;;;;;;;;;13.75;13.75;;;;;;;;3558449;39;111802;-71
2021/04/27 06:09:53;;;;;;;;;15.25;10.00;;;;;;;;3560283;39;113260;-71
2021/04/27 06:12:19;;;;;;;;;12.00;11.00;;;;;;;;3558655;39;112570;-71
2021/04/27 06:14:45;;;;;;;;;15.25;15.25;;;;;;;;3559067;39;113333;-70
2021/04/27 06:17:12;;;;;;;;;16.75;11.75;;;;;;;;3557783;39;114296;-72
2021/04/27 06:19:38;;;;;;;;;10.75;9.00;;;;;;;;3559707;39;111894;-69
2021/04/27 06:22:04;;;;;;;;;14.75;14.50;;;;;;;;3558020;39;113391;-68
2021/04/27 06:24:30;;;;;;;;;18.00;16.25;;;;;;;;3559320;39;114036;-68
2021/04/27 06:26:56;;;;;;;;;16.50;15.00;;;;;;;;3558554;39;112147;-70
2021/04/27 06:29:22;;;;;;;;;15.25;13.25;;;;;;;;3557924;39;113717;-73
2021/04/27 06:31:48;;;;;;;;;15.50;12.50;;;;;;;;3561197;39;114014;-71
2021/04/27 06:34:15;;;;;;;;;14.00;14.00;;;;;;;;3559233;39;113490;-70
2021/04/27 06:36:42;;;;;;;;;13.00;13.00;;;;;;;;3557730;39;114381;-71
2021/04/27 06:39:08;;;;;;;;;17.75;15.75;;;;;;;;3553132;39;112400;-69
2021/04/27 06:41:34;;;;;;;;;14.50;12.00;;;;;;;;3557192;39;112366;-71
2021/04/27 06:44:00;;;;;;;;;16.75;13.25;;;;;;;;3556796;39;115157;-69
2021/04/27 06:46:26;;;;;;;;;14.75;12.75;;;;;;;;3554229;39;111942;-72
2021/04/27 06:48:53;;;;;;;;;18.75;17.00;;;;;;;;3558080;39;113030;-70
2021/04/27 06:51:19;;;;;;;;;17.50;17.50;;;;;;;;3558043;39;113747;-70
2021/04/27 06:53:46;;;;;;;;;13.25;12.00;;;;;;;;3560129;39;112329;-72
2021/04/27 06:56:12;;;;;;;;;8.00;7.75;;;;;;;;3555938;39;113940;-70
2021/04/27 06:58:39;;;;;;;;;22.25;16.25;;;;;;;;3556963;39;111943;-69
2021/04/27 07:01:05;;;;;;;;;12.00;12.00;;;;;;;;3559203;39;113455;-70
2021/04/27 07:03:31;;;;;;;;;20.50;16.50;;;;;;;;3556480;39;114049;-70
2021/04/27 07:05:57;;;;;;;;;19.00;15.50;;;;;;;;3558540;39;113273;-70
2021/04/27 07:08:24;;;;;;;;;13.25;13.00;;;;;;;;3554629;39;113085;-69
2021/04/27 07:10:53;;;;;;;;;12.00;11.25;;;;;;;;3557610;39;113254;-73
2021/04/27 07:13:19;;;;;;;;;18.00;15.00;;;;;;;;3558723;39;113118;-71
2021/04/27 07:15:45;;;;;;;;;11.25;8.50;;;;;;;;3560539;39;113883;-71
2021/04/27 07:18:14;;;;;;;;;15.50;13.25;;;;;;;;3557480;39;112237;-73
2021/04/27 07:20:40;;;;;;;;;14.25;12.50;;;;;;;;3558604;39;113157;-72
2021/04/27 07:23:06;;;;;;;;;12.00;12.00;;;;;;;;3556697;39;113855;-70
2021/04/27 07:25:33;;;;;;;;;10.75;10.75;;;;;;;;3561757;39;112317;-72
2021/04/27 07:27:59;;;;;;;;;16.00;13.50;;;;;;;;3562304;39;113229;-73
2021/04/27 07:30:25;;;;;;;;;11.25;11.25;;;;;;;;3561977;39;114124;-73
2021/04/27 07:32:52;;;;;;;;;11.50;10.25;;;;;;;;3560166;39;113507;-72
2021/04/27 07:35:18;;;;;;;;;16.75;13.00;;;;;;;;3556140;39;112359;-72
2021/04/27 07:37:44;;;;;;;;;13.75;13.00;;;;;;;;3563488;39;112432;-72
2021/04/27 07:40:11;;;;;;;;;17.75;15.75;;;;;;;;3558238;39;113407;-70
2021/04/27 07:42:38;;;;;;;;;13.50;12.00;;;;;;;;3554363;39;113918;-70
2021/04/27 07:45:05;;;;;;;;;16.00;15.00;;;;;;;;3555129;39;112063;-68
2021/04/27 07:47:31;;;;;;;;;12.75;11.50;;;;;;;;3558122;39;113327;-70
2021/04/27 07:49:58;;;;;;;;;15.00;14.50;;;;;;;;3556645;39;114852;-69
2021/04/27 07:52:25;;;;;;;;;12.50;12.00;;;;;;;;3557418;39;112416;-69
2021/04/27 07:54:52;;;;;;;;;15.25;11.25;;;;;;;;3557083;39;113060;-68
2021/04/27 07:57:20;;;;;;;;;13.00;13.00;;;;;;;;3558842;39;114318;-69
2021/04/27 07:59:47;;;;;;;;;15.00;12.50;;;;;;;;3556740;39;112835;-69
2021/04/27 08:02:13;;;;;;;;;13.25;12.25;;;;;;;;3557332;39;114184;-70
2021/04/27 08:04:39;;;;;;;;;10.25;9.25;;;;;;;;3556316;39;112007;-70
2021/04/27 08:07:05;;;;;;;;;11.00;11.00;;;;;;;;3558783;39;113263;-69
2021/04/27 08:09:31;;;;;;;;;7.75;6.00;;;;;;;;3558460;39;113735;-70
2021/04/27 08:11:57;;;;;;;;;10.00;9.00;;;;;;;;3557787;39;112101;-69
2021/04/27 08:14:23;;;;;;;;;7.25;5.50;;;;;;;;3558922;39;113406;-70
2021/04/27 08:16:50;;;;;;;;;3.25;3.25;;;;;;;;3558302;39;114068;-69
2021/04/27 08:19:17;;;;;;;;;5.00;5.00;;;;;;;;3562772;39;112650;-71
2021/04/27 08:21:44;;;;;;;;;4.50;4.50;;;;;;;;3558940;39;113980;-70
2021/04/27 08:24:11;;;;;;;;;5.25;5.00;;;;;;;;3559370;39;112583;-70
2021/04/27 08:26:37;;;;;;;;;4.50;3.00;;;;;;;;3558538;39;113255;-71
2021/04/27 08:29:03;;;;;;;;;4.00;3.75;;;;;;;;3557182;39;112831;-71
2021/04/27 08:31:29;;;;;;;;;3.00;3.00;;;;;;;;3558432;39;112365;-71
2021/04/27 08:33:56;;;;;;;;;3.00;3.00;;;;;;;;3558339;39;115464;-70
2021/04/27 08:36:22;;;;;;;;;3.50;3.50;;;;;;;;3559215;39;114017;-70
2021/04/27 08:38:49;;;;;;;;;4.75;4.75;;;;;;;;3556595;39;112178;-71
2021/04/27 08:41:16;;;;;;;;;3.00;3.00;;;;;;;;3558476;39;113168;-69
2021/04/27 08:43:42;;;;;;;;;6.00;4.00;;;;;;;;3562116;39;111860;-70
2021/04/27 08:46:08;;;;;;;;;3.00;1.50;;;;;;;;3558953;39;113829;-71
2021/04/27 08:48:34;;;;;;;;;2.00;2.00;;;;;;;;3560864;39;113961;-69
2021/04/27 08:51:02;;;;;;;;;2.50;2.50;;;;;;;;3561288;39;112344;-70
2021/04/27 08:53:28;;;;;;;;;4.00;4.00;;;;;;;;3562558;39;113331;-70
2021/04/27 08:55:54;;;;;;;;;2.00;2.00;;;;;;;;3561961;39;113756;-72
2021/04/27 08:58:20;;;;;;;;;2.50;2.50;;;;;;;;3562006;39;112379;-70
2021/04/27 09:00:46;;;;;;;;;3.75;3.50;;;;;;;;3558274;39;113577;-70
2021/04/27 09:03:13;;;;;;;;;2.50;2.50;;;;;;;;3561784;39;113800;-72
2021/04/27 09:05:40;;;;;;;;;3.00;3.00;;;;;;;;3558309;39;113685;-72
2021/04/27 09:08:07;;;;;;;;;2.50;2.00;;;;;;;;3560020;39;113692;-71
2021/04/27 09:10:34;;;;;;;;;3.00;2.00;;;;;;;;3558466;39;111895;-70
2021/04/27 09:13:02;;;;;;;;;3.00;3.00;;;;;;;;3560035;39;113797;-71
2021/04/27 09:15:31;;;;;;;;;3.00;3.00;;;;;;;;3558221;39;114042;-72
2021/04/27 09:17:57;;;;;;;;;3.25;3.00;;;;;;;;3558604;39;111816;-72
2021/04/27 09:20:23;;;;;;;;;3.25;2.00;;;;;;;;3559078;39;113167;-70
2021/04/27 09:22:49;;;;;;;;;2.00;2.00;;;;;;;;3558696;39;113889;-70
2021/04/27 09:25:22;;;;;;;;;1.75;1.75;;;;;;;;3558248;39;115934;-69
2021/04/27 09:27:48;;;;;;;;;2.75;1.50;;;;;;;;3558198;39;114221;-70
2021/04/27 09:30:16;;;;;;;;;2.00;2.00;;;;;;;;3558368;39;111842;-70
2021/04/27 09:32:42;;;;;;;;;2.00;2.00;;;;;;;;3558915;39;113251;-68
2021/04/27 09:35:22;;;;;;;;;1.25;1.25;;;;;;;;3557460;39;114093;-69
2021/04/27 09:38:03;;;;;;;;;2.50;1.00;;;;;;;;3558544;39;112057;-70
2021/04/27 09:40:30;;;;;;;;;3.00;3.00;;;;;;;;3558996;39;113391;-69
2021/04/27 09:43:02;;;;;;;;;1.00;1.00;;;;;;;;3559178;39;113852;-71
2021/04/27 09:45:38;;;;;;;;;5.75;3.00;;;;;;;;3560748;39;112141;-69
2021/04/27 09:48:04;;;;;;;;;2.00;2.00;;;;;;;;3555333;39;114271;-69
2021/04/27 09:50:30;;;;;;;;;3.00;2.00;;;;;;;;3558993;39;111956;-73
2021/04/27 09:52:56;;;;;;;;;3.25;3.25;;;;;;;;3559265;39;113612;-73
2021/04/27 09:55:22;;;;;;;;;2.00;2.00;;;;;;;;3557746;39;112912;-72
2021/04/27 09:57:50;;;;;;;;;3.00;1.75;;;;;;;;3562121;39;112666;-72
2021/04/27 10:00:32;;;;;;;;;2.75;1.00;;;;;;;;3562104;39;113100;-71
2021/04/27 10:02:59;;;;;;;;;2.00;2.00;;;;;;;;3561557;39;113776;-73
2021/04/27 10:05:25;;;;;;;;;2.75;2.75;;;;;;;;3558084;39;111854;-72
2021/04/27 10:07:51;;;;;;;;;1.00;1.00;;;;;;;;3562937;39;113292;-73
2021/04/27 10:10:18;;;;;;;;;2.25;2.25;;;;;;;;3559489;39;112341;-72
2021/04/27 10:12:44;;;;;;;;;3.00;3.00;;;;;;;;3561651;39;113190;-72
2021/04/27 10:15:12;;;;;;;;;2.00;2.00;;;;;;;;3561040;39;113882;-71
2021/04/27 10:17:38;;;;;;;;;2.00;2.00;;;;;;;;3559495;39;112510;-71
2021/04/27 10:20:06;;;;;;;;;1.75;1.75;;;;;;;;3561177;39;113414;-72
2021/04/27 10:22:32;;;;;;;;;3.50;2.00;;;;;;;;3560338;39;114170;-71
2021/04/27 10:24:58;;;;;;;;;2.25;2.25;;;;;;;;3561054;39;113059;-72
2021/04/27 10:27:25;;;;;;;;;3.00;3.00;;;;;;;;3561217;39;113571;-73
2021/04/27 10:29:55;;;;;;;;;2.75;1.75;;;;;;;;3562188;39;115152;-72
2021/04/27 10:32:23;;;;;;;;;2.50;1.75;;;;;;;;3557940;39;113364;-73
2021/04/27 10:35:07;;;;;;;;;2.00;2.00;;;;;;;;3558487;39;114233;-73
2021/04/27 10:37:48;;;;;;;;;2.25;1.00;;;;;;;;3559363;39;112777;-73
2021/04/27 10:40:34;;;;;;;;;3.00;2.00;;;;;;;;3560287;39;113198;-72
2021/04/27 10:43:25;;;;;;;;;2.25;2.00;;;;;;;;3553061;39;112811;-72
2021/04/27 10:45:52;;;;;;;;;2.00;2.00;;;;;;;;3557482;39;111990;-71
2021/04/27 10:48:25;;;;;;;;;2.75;2.50;;;;;;;;3558459;39;113771;-71
2021/04/27 10:50:51;;;;;;;;;3.00;3.00;;;;;;;;3554720;39;114031;-71
2021/04/27 10:53:30;;;;;;;;;4.25;3.00;;;;;;;;3558832;39;112955;-70
2021/04/27 10:55:57;;;;;;;;;5.00;4.00;;;;;;;;3557251;39;114355;-71
2021/04/27 10:58:38;;;;;;;;;4.75;4.00;;;;;;;;3558588;39;111997;-71
2021/04/27 11:01:16;;;;;;;;;4.00;3.00;;;;;;;;3554729;39;113279;-71
2021/04/27 11:03:49;;;;;;;;;5.00;3.75;;;;;;;;3554605;39;114681;-71
2021/04/27 11:06:15;;;;;;;;;4.25;4.00;;;;;;;;3558169;39;111909;-72
2021/04/27 11:08:51;;;;;;;;;4.00;4.00;;;;;;;;3557118;39;113317;-72
2021/04/27 11:11:22;;;;;;;;;3.50;3.50;;;;;;;;3556722;39;113903;-71
2021/04/27 11:13:49;;;;;;;;;3.75;3.25;;;;;;;;3557675;39;112137;-71
2021/04/27 11:16:25;;;;;;;;;6.00;5.00;;;;;;;;3558996;39;113571;-69
2021/04/27 11:18:52;;;;;;;;;5.75;5.75;;;;;;;;3557565;39;111910;-71
2021/04/27 11:21:19;;;;;;;;;5.50;5.00;;;;;;;;3558097;39;113332;-71
2021/04/27 11:23:50;;;;;;;;;6.00;5.75;;;;;;;;3557223;39;113994;-71
2021/04/27 11:26:35;;;;;;;;;5.25;5.00;;;;;;;;3555028;39;112551;-71
2021/04/27 11:29:04;;;;;;;;;6.50;6.50;;;;;;;;3553418;39;112846;-71
2021/04/27 11:31:30;;;;;;;;;4.50;4.50;;;;;;;;3554436;39;114293;-72
2021/04/27 11:33:59;;;;;;;;;5.00;5.00;;;;;;;;3560064;39;112489;-70
2021/04/27 11:36:42;;;;;;;;;8.00;6.75;;;;;;;;3557439;39;113293;-71
2021/04/27 11:39:10;;;;;;;;;7.00;6.00;;;;;;;;3559429;39;114019;-71
2021/04/27 11:41:45;;;;;;;;;5.50;5.00;;;;;;;;3555443;39;113644;-72
2021/04/27 11:44:11;;;;;;;;;6.00;6.00;;;;;;;;3552013;39;112856;-72
2021/04/27 11:46:52;;;;;;;;;7.00;7.00;;;;;;;;3559659;39;111794;-71
2021/04/27 11:49:19;;;;;;;;;8.00;6.00;;;;;;;;3557820;39;114087;-71
2021/04/27 11:51:45;;;;;;;;;6.00;6.00;;;;;;;;3558458;39;113904;-71
2021/04/27 11:54:12;;;;;;;;;7.00;7.00;;;;;;;;3558288;39;113142;-72
2021/04/27 11:56:45;;;;;;;;;5.00;5.00;;;;;;;;3554515;39;113469;-72
2021/04/27 11:59:11;;;;;;;;;5.50;5.50;;;;;;;;3559850;39;114499;-71
2021/04/27 12:01:37;;;;;;;;;6.00;6.00;;;;;;;;3558068;39;113326;-72
2021/04/27 12:04:03;;;;;;;;;6.00;5.75;;;;;;;;3556791;39;114337;-74
2021/04/27 12:06:32;;;;;;;;;7.25;5.50;;;;;;;;3559319;39;112078;-68
2021/04/27 12:09:01;;;;;;;;;5.25;5.25;;;;;;;;3556256;39;114168;-81
2021/04/27 12:11:29;;;;;;;;;6.00;6.00;;;;;;;;3559204;39;114435;-83
2021/04/27 12:13:56;;;;;;;;;8.00;5.75;;;;;;;;3557785;39;112059;-83
2021/04/27 12:16:23;;;;;;;;;6.75;6.00;;;;;;;;3554891;39;112509;-83
2021/04/27 12:18:50;;;;;;;;;8.00;7.75;;;;;;;;3558462;39;114090;-83
2021/04/27 12:21:27;;;;;;;;;6.00;6.00;;;;;;;;3562370;39;112634;-80
2021/04/27 12:24:04;;;;;;;;;7.75;7.75;;;;;;;;3558635;39;114049;-79
2021/04/27 12:26:30;;;;;;;;;5.00;5.00;;;;;;;;3559407;39;111990;-75
2021/04/27 12:28:57;;;;;;;;;5.00;5.00;;;;;;;;3558546;39;113320;-76
2021/04/27 12:31:23;;;;;;;;;5.00;5.00;;;;;;;;3558904;39;114382;-75
2021/04/27 12:33:56;;;;;;;;;5.00;5.00;;;;;;;;3558736;39;111802;-81
2021/04/27 12:36:33;;;;;;;;;8.50;6.25;;;;;;;;3558079;39;114275;-78
2021/04/27 12:38:59;;;;;;;;;4.00;4.00;;;;;;;;3559174;39;113877;-77
2021/04/27 12:41:35;;;;;;;;;7.75;7.75;;;;;;;;3555055;39;112034;-73
2021/04/27 12:44:16;;;;;;;;;8.75;6.25;;;;;;;;3562093;39;113553;-73
2021/04/27 12:46:47;;;;;;;;;7.25;5.25;;;;;;;;3555411;39;112840;-71
2021/04/27 12:49:13;;;;;;;;;4.00;4.00;;;;;;;;3559082;39;113410;-72
2021/04/27 12:51:39;;;;;;;;;4.75;4.75;;;;;;;;3554078;39;113830;-73
2021/04/27 19:51:43;;;;;;;;;7.00;7.00;;;;;;;;3557973;39;991782;-76
2021/04/27 19:54:09;;;;;;;;;6.75;5.00;;;;;;;;3576672;39;113783;-75
2021/04/27 19:56:35;;;;;;;;;5.75;5.75;;;;;;;;3575565;39;111958;-76
2021/04/27 19:59:01;;;;;;;;;8.00;7.75;;;;;;;;3576822;39;113558;-75
2021/04/27 20:01:28;;;;;;;;;7.00;5.00;;;;;;;;3575404;39;114314;-76
2021/04/27 20:03:54;;;;;;;;;5.50;4.00;;;;;;;;3576120;39;112227;-75
2021/04/27 20:06:21;;;;;;;;;4.25;4.00;;;;;;;;3576435;39;113252;-75
2021/04/27 20:08:48;;;;;;;;;5.50;5.50;;;;;;;;3575443;39;114683;-75
2021/04/27 20:11:14;;;;;;;;;5.00;4.25;;;;;;;;3579829;39;112899;-75
2021/04/27 20:13:40;;;;;;;;;5.25;3.50;;;;;;;;3576563;39;113832;-75
2021/04/27 20:16:06;;;;;;;;;3.75;3.50;;;;;;;;3576944;39;112407;-75
2021/04/27 20:18:33;;;;;;;;;4.00;4.00;;;;;;;;3575497;39;113500;-75
2021/04/27 20:20:59;;;;;;;;;2.50;2.50;;;;;;;;3578463;39;113777;-75
2021/04/27 20:23:25;;;;;;;;;3.25;2.75;;;;;;;;3577305;39;112138;-75
2021/04/27 20:25:52;;;;;;;;;4.00;4.00;;;;;;;;3576271;39;113450;-76
2021/04/27 20:28:18;;;;;;;;;8.00;4.00;;;;;;;;3575968;39;114183;-75
2021/04/27 20:30:44;;;;;;;;;5.00;5.00;;;;;;;;3576438;39;112063;-76
2021/04/27 20:33:10;;;;;;;;;5.00;5.00;;;;;;;;3577534;39;113312;-76
2021/04/27 20:35:36;;;;;;;;;6.00;6.00;;;;;;;;3577106;39;112926;-77
2021/04/27 20:38:03;;;;;;;;;4.00;4.00;;;;;;;;3575221;39;113411;-75
2021/04/27 20:40:29;;;;;;;;;4.75;4.75;;;;;;;;3575210;39;114549;-75
2021/04/27 20:42:56;;;;;;;;;1.75;1.75;;;;;;;;3576397;39;111928;-75
2021/04/27 20:45:23;;;;;;;;;6.00;4.25;;;;;;;;3577068;39;113204;-75
2021/04/27 20:47:49;;;;;;;;;4.75;4.75;;;;;;;;3576320;39;114557;-74
2021/04/27 20:50:16;;;;;;;;;4.00;4.00;;;;;;;;3576206;39;112132;-75
2021/04/27 20:52:42;;;;;;;;;3.75;3.75;;;;;;;;3577843;39;113207;-75
2021/04/27 20:55:09;;;;;;;;;4.00;4.00;;;;;;;;3580053;39;114315;-76
2021/04/27 20:57:37;;;;;;;;;8.00;6.00;;;;;;;;3577994;39;113710;-74
2021/04/27 21:00:06;;;;;;;;;5.25;5.25;;;;;;;;3577227;39;113945;-75
2021/04/27 21:04:32;;;;;;;;;5.50;5.00;;;;;;;;3573260;39;113247;-74
2021/04/27 21:06:58;;;;;;;;;5.50;5.50;;;;;;;;3565808;39;114429;-72
2021/04/27 21:09:25;;;;;;;;;4.50;4.50;;;;;;;;3563946;39;113274;-73
2021/04/27 21:11:51;;;;;;;;;4.75;4.00;;;;;;;;3566755;39;113238;-71
2021/04/27 21:14:17;;;;;;;;;7.25;7.25;;;;;;;;3566761;39;113800;-72
2021/04/27 21:16:43;;;;;;;;;7.50;5.75;;;;;;;;3566064;39;111777;-73